sensor_id;sensor_type;location;lat;lon;timestamp;pressure;altitude;pressure_sealevel;temperature;humidity
54038;BME280;39954;48.844;9.726;2022-12-07T00:00:54;96062.88;;;0.25;100.00
54038;BME280;39954;48.844;9.726;2022-12-07T00:02:41;96067.09;;;0.29;100.00
54038;BME280;39954;48.844;9.726;2022-12-07T00:06:15;96068.88;;;0.24;100.00
54038;BME280;39954;48.844;9.726;2022-12-07T00:08:33;96068.03;;;0.24;100.00
54038;BME280;39954;48.844;9.726;2022-12-07T00:10:04;96068.03;;;0.24;100.00
54038;BME280;39954;48.844;9.726;2022-12-07T00:11:35;96072.31;;;0.21;100.00
54038;BME280;39954;48.844;9.726;2022-12-07T00:13:12;96073.22;;;0.20;100.00
54038;BME280;39954;48.844;9.726;2022-12-07T00:14:40;96070.59;;;0.24;100.00
54038;BME280;39954;48.844;9.726;2022-12-07T00:16:07;96067.81;;;0.37;100.00
54038;BME280;39954;48.844;9.726;2022-12-07T00:17:38;96064.53;;;0.29;100.00
54038;BME280;39954;48.844;9.726;2022-12-07T00:19:00;96068.81;;;0.27;100.00
54038;BME280;39954;48.844;9.726;2022-12-07T00:20:14;96061.09;;;0.32;100.00
54038;BME280;39954;48.844;9.726;2022-12-07T00:21:51;96062.88;;;0.25;100.00
54038;BME280;39954;48.844;9.726;2022-12-07T00:23:33;96066.16;;;0.33;100.00
54038;BME280;39954;48.844;9.726;2022-12-07T00:25:26;96073.81;;;0.35;100.00
54038;BME280;39954;48.844;9.726;2022-12-07T00:27:33;96066.31;;;0.26;100.00
54038;BME280;39954;48.844;9.726;2022-12-07T00:28:59;96060.38;;;0.24;100.00
54038;BME280;39954;48.844;9.726;2022-12-07T00:30:37;96057.75;;;0.27;100.00
54038;BME280;39954;48.844;9.726;2022-12-07T00:31:53;96057.81;;;0.24;100.00
54038;BME280;39954;48.844;9.726;2022-12-07T00:33:23;96058.66;;;0.24;100.00
54038;BME280;39954;48.844;9.726;2022-12-07T00:34:58;96062.00;;;0.28;100.00
54038;BME280;39954;48.844;9.726;2022-12-07T00:36:21;96056.88;;;0.28;100.00
54038;BME280;39954;48.844;9.726;2022-12-07T00:37:42;96061.31;;;0.18;100.00
54038;BME280;39954;48.844;9.726;2022-12-07T00:39:04;96058.69;;;0.22;100.00
54038;BME280;39954;48.844;9.726;2022-12-07T00:40:27;96061.16;;;0.27;100.00
54038;BME280;39954;48.844;9.726;2022-12-07T00:41:43;96057.75;;;0.27;100.00
54038;BME280;39954;48.844;9.726;2022-12-07T00:43:15;96052.66;;;0.25;100.00
54038;BME280;39954;48.844;9.726;2022-12-07T00:44:49;96062.94;;;0.22;100.00
54038;BME280;39954;48.844;9.726;2022-12-07T00:46:14;96056.13;;;0.22;100.00
54038;BME280;39954;48.844;9.726;2022-12-07T00:49:14;96054.31;;;0.28;100.00
54038;BME280;39954;48.844;9.726;2022-12-07T00:50:48;96059.31;;;0.35;100.00
54038;BME280;39954;48.844;9.726;2022-12-07T00:52:19;96054.25;;;0.34;100.00
54038;BME280;39954;48.844;9.726;2022-12-07T00:54:13;96049.16;;;0.31;100.00
54038;BME280;39954;48.844;9.726;2022-12-07T00:55:52;96061.16;;;0.29;100.00
54038;BME280;39954;48.844;9.726;2022-12-07T00:57:11;96058.53;;;0.30;100.00
54038;BME280;39954;48.844;9.726;2022-12-07T00:58:16;96060.25;;;0.30;100.00
54038;BME280;39954;48.844;9.726;2022-12-07T00:59:18;96061.91;;;0.34;100.00
54038;BME280;39954;48.844;9.726;2022-12-07T01:00:23;96050.88;;;0.32;100.00
54038;BME280;39954;48.844;9.726;2022-12-07T01:01:28;96053.41;;;0.32;100.00
54038;BME280;39954;48.844;9.726;2022-12-07T01:02:33;96050.75;;;0.36;100.00
54038;BME280;39954;48.844;9.726;2022-12-07T01:03:36;96053.31;;;0.38;100.00
54038;BME280;39954;48.844;9.726;2022-12-07T01:04:42;96060.00;;;0.45;100.00
54038;BME280;39954;48.844;9.726;2022-12-07T01:05:51;96060.09;;;0.40;100.00
54038;BME280;39954;48.844;9.726;2022-12-07T01:06:53;96060.09;;;0.39;100.00
54038;BME280;39954;48.844;9.726;2022-12-07T01:07:59;96049.81;;;0.42;100.00
54038;BME280;39954;48.844;9.726;2022-12-07T01:09:02;96058.31;;;0.44;100.00
54038;BME280;39954;48.844;9.726;2022-12-07T01:10:11;96053.25;;;0.41;100.00
54038;BME280;39954;48.844;9.726;2022-12-07T01:11:15;96055.88;;;0.38;100.00
54038;BME280;39954;48.844;9.726;2022-12-07T01:12:20;96061.81;;;0.40;100.00
54038;BME280;39954;48.844;9.726;2022-12-07T01:13:23;96055.84;;;0.39;100.00
54038;BME280;39954;48.844;9.726;2022-12-07T01:14:28;96067.88;;;0.34;100.00
54038;BME280;39954;48.844;9.726;2022-12-07T01:15:30;96069.53;;;0.35;100.00
54038;BME280;39954;48.844;9.726;2022-12-07T01:16:35;96061.81;;;0.40;100.00
54038;BME280;39954;48.844;9.726;2022-12-07T01:17:40;96057.47;;;0.45;100.00
54038;BME280;39954;48.844;9.726;2022-12-07T01:18:45;96060.03;;;0.43;100.00
54038;BME280;39954;48.844;9.726;2022-12-07T01:19:51;96060.03;;;0.43;100.00
54038;BME280;39954;48.844;9.726;2022-12-07T01:21:00;96060.88;;;0.44;100.00
54038;BME280;39954;48.844;9.726;2022-12-07T01:22:05;96066.84;;;0.43;100.00
54038;BME280;39954;48.844;9.726;2022-12-07T01:23:11;96061.63;;;0.49;100.00
54038;BME280;39954;48.844;9.726;2022-12-07T01:24:13;96062.41;;;0.53;100.00
54038;BME280;39954;48.844;9.726;2022-12-07T01:25:21;96065.06;;;0.48;100.00
54038;BME280;39954;48.844;9.726;2022-12-07T01:26:24;96057.47;;;0.45;100.00
54038;BME280;39954;48.844;9.726;2022-12-07T01:27:30;96057.53;;;0.39;100.00
54038;BME280;39954;48.844;9.726;2022-12-07T01:28:33;96058.38;;;0.41;100.00
54038;BME280;39954;48.844;9.726;2022-12-07T01:29:38;96067.81;;;0.36;100.00
54038;BME280;39954;48.844;9.726;2022-12-07T01:30:41;96063.66;;;0.32;100.00
54038;BME280;39954;48.844;9.726;2022-12-07T01:31:48;96063.59;;;0.35;100.00
54038;BME280;39954;48.844;9.726;2022-12-07T01:32:51;96065.38;;;0.31;100.00
54038;BME280;39954;48.844;9.726;2022-12-07T01:33:58;96063.81;;;0.22;100.00
54038;BME280;39954;48.844;9.726;2022-12-07T01:35:01;96067.09;;;0.28;100.00
54038;BME280;39954;48.844;9.726;2022-12-07T01:36:07;96064.59;;;0.26;100.00
54038;BME280;39954;48.844;9.726;2022-12-07T01:37:10;96065.41;;;0.28;100.00
54038;BME280;39954;48.844;9.726;2022-12-07T01:38:15;96062.88;;;0.27;100.00
54038;BME280;39954;48.844;9.726;2022-12-07T01:39:17;96067.88;;;0.34;100.00
54038;BME280;39954;48.844;9.726;2022-12-07T01:40:25;96070.59;;;0.24;100.00
54038;BME280;39954;48.844;9.726;2022-12-07T01:41:30;96067.16;;;0.26;100.00
54038;BME280;39954;48.844;9.726;2022-12-07T01:42:35;96067.22;;;0.21;100.00
54038;BME280;39954;48.844;9.726;2022-12-07T01:44:09;96068.91;;;0.22;100.00
54038;BME280;39954;48.844;9.726;2022-12-07T01:45:44;96062.94;;;0.22;100.00
54038;BME280;39954;48.844;9.726;2022-12-07T01:46:50;96069.72;;;0.25;100.00
54038;BME280;39954;48.844;9.726;2022-12-07T01:47:55;96075.72;;;0.24;100.00
54038;BME280;39954;48.844;9.726;2022-12-07T01:49:03;96072.28;;;0.25;100.00
54038;BME280;39954;48.844;9.726;2022-12-07T01:50:07;96067.16;;;0.25;100.00
54038;BME280;39954;48.844;9.726;2022-12-07T01:51:14;96063.00;;;0.19;100.00
54038;BME280;39954;48.844;9.726;2022-12-07T01:52:20;96074.88;;;0.23;100.00
54038;BME280;39954;48.844;9.726;2022-12-07T01:53:28;96069.00;;;0.16;100.00
54038;BME280;39954;48.844;9.726;2022-12-07T01:54:33;96072.38;;;0.18;100.00
54038;BME280;39954;48.844;9.726;2022-12-07T01:55:44;96067.22;;;0.21;100.00
54038;BME280;39954;48.844;9.726;2022-12-07T01:56:50;96070.66;;;0.20;100.00
54038;BME280;39954;48.844;9.726;2022-12-07T01:57:56;96067.25;;;0.18;100.00
54038;BME280;39954;48.844;9.726;2022-12-07T01:59:00;96067.25;;;0.18;100.00
54038;BME280;39954;48.844;9.726;2022-12-07T02:00:08;96070.69;;;0.17;100.00
54038;BME280;39954;48.844;9.726;2022-12-07T02:01:11;96068.22;;;0.13;100.00
54038;BME280;39954;48.844;9.726;2022-12-07T02:02:19;96080.16;;;0.11;100.00
54038;BME280;39954;48.844;9.726;2022-12-07T02:03:24;96077.53;;;0.15;100.00
54038;BME280;39954;48.844;9.726;2022-12-07T02:04:32;96078.50;;;0.08;100.00
54038;BME280;39954;48.844;9.726;2022-12-07T02:05:35;96076.88;;;0.04;100.00
54038;BME280;39954;48.844;9.726;2022-12-07T02:06:43;96075.19;;;0.03;100.00
54038;BME280;39954;48.844;9.726;2022-12-07T02:07:47;96077.69;;;0.06;100.00
54038;BME280;39954;48.844;9.726;2022-12-07T02:08:53;96070.09;;;0.02;100.00
54038;BME280;39954;48.844;9.726;2022-12-07T02:09:56;96068.47;;;-0.03;100.00
54038;BME280;39954;48.844;9.726;2022-12-07T02:11:05;96076.97;;;-0.02;100.00
54038;BME280;39954;48.844;9.726;2022-12-07T02:12:09;96074.38;;;0.01;100.00
54038;BME280;39954;48.844;9.726;2022-12-07T02:13:16;96080.25;;;0.06;100.00
54038;BME280;39954;48.844;9.726;2022-12-07T02:14:20;96078.47;;;0.11;100.00
54038;BME280;39954;48.844;9.726;2022-12-07T02:15:29;96079.44;;;0.03;100.00
54038;BME280;39954;48.844;9.726;2022-12-07T02:16:44;96081.25;;;-0.03;100.00
54038;BME280;39954;48.844;9.726;2022-12-07T02:17:57;96081.19;;;0.01;100.00
54038;BME280;39954;48.844;9.726;2022-12-07T02:19:20;96081.97;;;0.06;100.00
54038;BME280;39954;48.844;9.726;2022-12-07T02:20:31;96076.03;;;0.02;100.00
54038;BME280;39954;48.844;9.726;2022-12-07T02:21:40;96074.31;;;0.04;100.00
54038;BME280;39954;48.844;9.726;2022-12-07T02:23:00;96084.44;;;0.10;100.00
54038;BME280;39954;48.844;9.726;2022-12-07T02:24:24;96079.38;;;0.09;100.00
54038;BME280;39954;48.844;9.726;2022-12-07T02:25:44;96079.41;;;0.06;100.00
54038;BME280;39954;48.844;9.726;2022-12-07T02:27:22;96080.34;;;0.00;100.00
54038;BME280;39954;48.844;9.726;2022-12-07T02:28:34;96074.47;;;-0.05;100.00
54038;BME280;39954;48.844;9.726;2022-12-07T02:29:45;96064.94;;;0.05;100.00
54038;BME280;39954;48.844;9.726;2022-12-07T02:30:52;96068.25;;;0.10;100.00
54038;BME280;39954;48.844;9.726;2022-12-07T02:32:03;96060.66;;;0.05;100.00
54038;BME280;39954;48.844;9.726;2022-12-07T02:33:15;96053.81;;;0.09;100.00
54038;BME280;39954;48.844;9.726;2022-12-07T02:34:26;96060.66;;;0.05;100.00
54038;BME280;39954;48.844;9.726;2022-12-07T02:35:38;96061.53;;;0.06;100.00
54038;BME280;39954;48.844;9.726;2022-12-07T02:36:46;96065.88;;;-0.01;100.00
54038;BME280;39954;48.844;9.726;2022-12-07T02:38:02;96062.53;;;-0.06;100.00
54038;BME280;39954;48.844;9.726;2022-12-07T02:39:16;96062.53;;;-0.06;100.00
54038;BME280;39954;48.844;9.726;2022-12-07T02:40:24;96059.19;;;-0.08;100.00
54038;BME280;39954;48.844;9.726;2022-12-07T02:41:33;96065.97;;;-0.09;100.00
54038;BME280;39954;48.844;9.726;2022-12-07T02:42:41;96066.88;;;-0.11;100.00
54038;BME280;39954;48.844;9.726;2022-12-07T02:43:50;96064.31;;;-0.11;100.00
54038;BME280;39954;48.844;9.726;2022-12-07T02:44:57;96066.13;;;-0.16;100.00
54038;BME280;39954;48.844;9.726;2022-12-07T02:46:09;96065.19;;;-0.12;100.00
54038;BME280;39954;48.844;9.726;2022-12-07T02:47:15;96063.56;;;-0.16;100.00
54038;BME280;39954;48.844;9.726;2022-12-07T02:48:23;96062.75;;;-0.18;100.00
54038;BME280;39954;48.844;9.726;2022-12-07T02:49:30;96062.66;;;-0.12;100.00
54038;BME280;39954;48.844;9.726;2022-12-07T02:50:35;96061.03;;;-0.16;100.00
54038;BME280;39954;48.844;9.726;2022-12-07T02:51:43;96057.63;;;-0.18;100.00
54038;BME280;39954;48.844;9.726;2022-12-07T02:52:46;96058.31;;;-0.07;100.00
54038;BME280;39954;48.844;9.726;2022-12-07T02:53:51;96054.03;;;-0.05;100.00
54038;BME280;39954;48.844;9.726;2022-12-07T02:54:53;96062.63;;;-0.11;100.00
54038;BME280;39954;48.844;9.726;2022-12-07T02:55:59;96054.06;;;-0.08;100.00
54038;BME280;39954;48.844;9.726;2022-12-07T02:57:13;96051.53;;;-0.11;100.00
54038;BME280;39954;48.844;9.726;2022-12-07T02:58:30;96048.25;;;-0.18;100.00
54038;BME280;39954;48.844;9.726;2022-12-07T02:59:48;96049.03;;;-0.14;100.00
54038;BME280;39954;48.844;9.726;2022-12-07T03:01:04;96043.03;;;-0.12;100.00
54038;BME280;39954;48.844;9.726;2022-12-07T03:02:18;96049.94;;;-0.17;100.00
54038;BME280;39954;48.844;9.726;2022-12-07T03:03:26;96049.09;;;-0.17;100.00
54038;BME280;39954;48.844;9.726;2022-12-07T03:04:41;96046.69;;;-0.25;100.00
54038;BME280;39954;48.844;9.726;2022-12-07T03:05:56;96046.69;;;-0.27;100.00
54038;BME280;39954;48.844;9.726;2022-12-07T03:07:07;96045.81;;;-0.26;100.00
54038;BME280;39954;48.844;9.726;2022-12-07T03:08:18;96044.09;;;-0.24;100.00
54038;BME280;39954;48.844;9.726;2022-12-07T03:09:30;96045.00;;;-0.28;100.00
54038;BME280;39954;48.844;9.726;2022-12-07T03:10:39;96039.06;;;-0.30;100.00
54038;BME280;39954;48.844;9.726;2022-12-07T03:11:47;96045.91;;;-0.32;100.00
54038;BME280;39954;48.844;9.726;2022-12-07T03:13:00;96038.22;;;-0.30;100.00
54038;BME280;39954;48.844;9.726;2022-12-07T03:14:13;96040.81;;;-0.32;100.00
54038;BME280;39954;48.844;9.726;2022-12-07T03:15:24;96039.16;;;-0.36;100.00
54038;BME280;39954;48.844;9.726;2022-12-07T03:16:35;96045.13;;;-0.37;100.00
54038;BME280;39954;48.844;9.726;2022-12-07T03:17:42;96050.19;;;-0.34;100.00
54038;BME280;39954;48.844;9.726;2022-12-07T03:18:51;96047.69;;;-0.37;100.00
54038;BME280;39954;48.844;9.726;2022-12-07T03:19:58;96040.94;;;-0.41;100.00
54038;BME280;39954;48.844;9.726;2022-12-07T03:21:10;96040.84;;;-0.35;100.00
54038;BME280;39954;48.844;9.726;2022-12-07T03:22:14;96047.56;;;-0.29;100.00
54038;BME280;39954;48.844;9.726;2022-12-07T03:23:21;96044.28;;;-0.36;100.00
54038;BME280;39954;48.844;9.726;2022-12-07T03:24:29;96042.56;;;-0.37;100.00
54038;BME280;39954;48.844;9.726;2022-12-07T03:25:39;96046.88;;;-0.40;100.00
54038;BME280;39954;48.844;9.726;2022-12-07T03:26:46;96044.31;;;-0.39;100.00
54038;BME280;39954;48.844;9.726;2022-12-07T03:27:54;96048.56;;;-0.38;100.00
54038;BME280;39954;48.844;9.726;2022-12-07T03:29:01;96046.00;;;-0.38;100.00
54038;BME280;39954;48.844;9.726;2022-12-07T03:30:11;96041.78;;;-0.39;100.00
54038;BME280;39954;48.844;9.726;2022-12-07T03:31:18;96045.13;;;-0.37;100.00
54038;BME280;39954;48.844;9.726;2022-12-07T03:32:29;96045.22;;;-0.43;100.00
54038;BME280;39954;48.844;9.726;2022-12-07T03:33:40;96049.50;;;-0.43;100.00
54038;BME280;39954;48.844;9.726;2022-12-07T03:34:50;96050.28;;;-0.40;100.00
54038;BME280;39954;48.844;9.726;2022-12-07T03:36:00;96048.56;;;-0.39;100.00
54038;BME280;39954;48.844;9.726;2022-12-07T03:37:08;96044.38;;;-0.43;100.00
54038;BME280;39954;48.844;9.726;2022-12-07T03:38:17;96051.13;;;-0.39;100.00
54038;BME280;39954;48.844;9.726;2022-12-07T03:39:26;96046.00;;;-0.38;100.00
54038;BME280;39954;48.844;9.726;2022-12-07T03:40:35;96051.16;;;-0.41;100.00
54038;BME280;39954;48.844;9.726;2022-12-07T03:41:42;96052.03;;;-0.42;100.00
54038;BME280;39954;48.844;9.726;2022-12-07T03:42:46;96051.09;;;-0.38;100.00
54038;BME280;39954;48.844;9.726;2022-12-07T03:43:54;96048.66;;;-0.44;100.00
54038;BME280;39954;48.844;9.726;2022-12-07T03:44:57;96046.09;;;-0.44;100.00
54038;BME280;39954;48.844;9.726;2022-12-07T03:46:10;96041.88;;;-0.47;100.00
54038;BME280;39954;48.844;9.726;2022-12-07T03:47:24;96044.47;;;-0.51;100.00
54038;BME280;39954;48.844;9.726;2022-12-07T03:48:37;96047.06;;;-0.53;100.00
54038;BME280;39954;48.844;9.726;2022-12-07T03:49:48;96044.47;;;-0.51;100.00
54038;BME280;39954;48.844;9.726;2022-12-07T03:51:00;96040.25;;;-0.54;100.00
54038;BME280;39954;48.844;9.726;2022-12-07T03:52:12;96040.25;;;-0.54;100.00
54038;BME280;39954;48.844;9.726;2022-12-07T03:53:22;96028.28;;;-0.49;100.00
54038;BME280;39954;48.844;9.726;2022-12-07T03:54:31;96041.94;;;-0.51;100.00
54038;BME280;39954;48.844;9.726;2022-12-07T03:55:39;96037.69;;;-0.52;100.00
54038;BME280;39954;48.844;9.726;2022-12-07T03:56:46;96037.78;;;-0.58;100.00
54038;BME280;39954;48.844;9.726;2022-12-07T03:57:51;96041.19;;;-0.59;100.00
54038;BME280;39954;48.844;9.726;2022-12-07T03:58:58;96037.84;;;-0.61;100.00
54038;BME280;39954;48.844;9.726;2022-12-07T04:00:01;96037.00;;;-0.65;100.00
54038;BME280;39954;48.844;9.726;2022-12-07T04:01:08;96036.13;;;-0.62;100.00
54038;BME280;39954;48.844;9.726;2022-12-07T04:02:13;96032.75;;;-0.64;100.00
54038;BME280;39954;48.844;9.726;2022-12-07T04:03:18;96035.34;;;-0.68;100.00
54038;BME280;39954;48.844;9.726;2022-12-07T04:04:24;96037.94;;;-0.69;100.00
54038;BME280;39954;48.844;9.726;2022-12-07T04:05:30;96032.84;;;-0.69;100.00
54038;BME280;39954;48.844;9.726;2022-12-07T04:06:32;96037.94;;;-0.69;100.00
54038;BME280;39954;48.844;9.726;2022-12-07T04:07:37;96037.94;;;-0.71;100.00
54038;BME280;39954;48.844;9.726;2022-12-07T04:08:40;96037.16;;;-0.74;100.00
54038;BME280;39954;48.844;9.726;2022-12-07T04:09:45;96039.72;;;-0.76;100.00
54038;BME280;39954;48.844;9.726;2022-12-07T04:10:47;96040.53;;;-0.74;100.00
54038;BME280;39954;48.844;9.726;2022-12-07T04:11:53;96040.53;;;-0.74;100.00
54038;BME280;39954;48.844;9.726;2022-12-07T04:12:55;96036.31;;;-0.75;100.00
54038;BME280;39954;48.844;9.726;2022-12-07T04:14:00;96031.16;;;-0.72;100.00
54038;BME280;39954;48.844;9.726;2022-12-07T04:15:18;96027.69;;;-0.68;100.00
54038;BME280;39954;48.844;9.726;2022-12-07T04:16:23;96029.31;;;-0.62;100.00
54038;BME280;39954;48.844;9.726;2022-12-07T04:17:25;96025.97;;;-0.64;100.00
54038;BME280;39954;48.844;9.726;2022-12-07T04:18:30;96026.66;;;-0.54;100.00
54038;BME280;39954;48.844;9.726;2022-12-07T04:19:35;96025.00;;;-0.57;100.00
54038;BME280;39954;48.844;9.726;2022-12-07T04:20:40;96021.59;;;-0.57;100.00
54038;BME280;39954;48.844;9.726;2022-12-07T04:21:43;96024.25;;;-0.63;100.00
54038;BME280;39954;48.844;9.726;2022-12-07T04:22:48;96025.91;;;-0.62;100.00
54038;BME280;39954;48.844;9.726;2022-12-07T04:23:50;96032.75;;;-0.64;100.00
54038;BME280;39954;48.844;9.726;2022-12-07T04:24:55;96024.19;;;-0.60;100.00
54038;BME280;39954;48.844;9.726;2022-12-07T04:25:58;96031.81;;;-0.57;100.00
54038;BME280;39954;48.844;9.726;2022-12-07T04:27:03;96025.81;;;-0.53;100.00
54038;BME280;39954;48.844;9.726;2022-12-07T04:28:05;96019.06;;;-0.59;100.00
54038;BME280;39954;48.844;9.726;2022-12-07T04:29:11;96016.59;;;-0.63;100.00
54038;BME280;39954;48.844;9.726;2022-12-07T04:30:13;96013.22;;;-0.65;100.00
54038;BME280;39954;48.844;9.726;2022-12-07T04:31:19;96003.03;;;-0.67;100.00
54038;BME280;39954;48.844;9.726;2022-12-07T04:32:21;96009.03;;;-0.70;100.00
54038;BME280;39954;48.844;9.726;2022-12-07T04:33:27;96005.66;;;-0.72;100.00
54038;BME280;39954;48.844;9.726;2022-12-07T04:34:29;96003.16;;;-0.76;100.00
54038;BME280;39954;48.844;9.726;2022-12-07T04:35:37;96010.00;;;-0.81;100.00
54038;BME280;39954;48.844;9.726;2022-12-07T04:36:40;96006.63;;;-0.82;100.00
54038;BME280;39954;48.844;9.726;2022-12-07T04:37:45;96002.41;;;-0.83;100.00
54038;BME280;39954;48.844;9.726;2022-12-07T04:38:47;96003.28;;;-0.84;100.00
54038;BME280;39954;48.844;9.726;2022-12-07T04:39:52;96000.72;;;-0.84;100.00
54038;BME280;39954;48.844;9.726;2022-12-07T04:40:55;96002.41;;;-0.83;100.00
54038;BME280;39954;48.844;9.726;2022-12-07T04:42:00;95993.88;;;-0.82;100.00
54038;BME280;39954;48.844;9.726;2022-12-07T04:43:03;95997.28;;;-0.83;100.00
54038;BME280;39954;48.844;9.726;2022-12-07T04:44:08;95997.34;;;-0.86;100.00
54038;BME280;39954;48.844;9.726;2022-12-07T04:45:10;95998.16;;;-0.84;100.00
54038;BME280;39954;48.844;9.726;2022-12-07T04:46:15;96001.56;;;-0.83;100.00
54038;BME280;39954;48.844;9.726;2022-12-07T04:47:18;96004.06;;;-0.80;100.00
54038;BME280;39954;48.844;9.726;2022-12-07T04:48:23;96003.22;;;-0.81;100.00
54038;BME280;39954;48.844;9.726;2022-12-07T04:49:25;95993.81;;;-0.79;100.00
54038;BME280;39954;48.844;9.726;2022-12-07T04:50:30;95995.53;;;-0.78;100.00
54038;BME280;39954;48.844;9.726;2022-12-07T04:51:35;95994.69;;;-0.78;100.00
54038;BME280;39954;48.844;9.726;2022-12-07T04:52:40;95998.88;;;-0.76;100.00
54038;BME280;39954;48.844;9.726;2022-12-07T04:53:43;95994.69;;;-0.78;100.00
54038;BME280;39954;48.844;9.726;2022-12-07T04:54:48;96000.59;;;-0.75;100.00
54038;BME280;39954;48.844;9.726;2022-12-07T04:55:51;96003.97;;;-0.73;100.00
54038;BME280;39954;48.844;9.726;2022-12-07T04:56:56;95998.00;;;-0.72;100.00
54038;BME280;39954;48.844;9.726;2022-12-07T04:57:58;95998.81;;;-0.70;100.00
54038;BME280;39954;48.844;9.726;2022-12-07T04:59:04;95991.13;;;-0.68;100.00
54038;BME280;39954;48.844;9.726;2022-12-07T05:00:08;95993.66;;;-0.66;100.00
54038;BME280;39954;48.844;9.726;2022-12-07T05:01:14;95997.06;;;-0.66;100.00
54038;BME280;39954;48.844;9.726;2022-12-07T05:02:16;95993.66;;;-0.66;100.00
54038;BME280;39954;48.844;9.726;2022-12-07T05:03:22;95994.47;;;-0.64;100.00
54038;BME280;39954;48.844;9.726;2022-12-07T05:04:24;95996.16;;;-0.63;100.00
54038;BME280;39954;48.844;9.726;2022-12-07T05:05:29;95991.91;;;-0.64;100.00
54038;BME280;39954;48.844;9.726;2022-12-07T05:06:34;95987.69;;;-0.64;100.00
54038;BME280;39954;48.844;9.726;2022-12-07T05:07:40;95991.91;;;-0.64;100.00
54038;BME280;39954;48.844;9.726;2022-12-07T05:08:42;95996.13;;;-0.62;100.00
54038;BME280;39954;48.844;9.726;2022-12-07T05:09:47;95994.41;;;-0.60;100.00
54038;BME280;39954;48.844;9.726;2022-12-07T05:10:52;95994.44;;;-0.61;100.00
54038;BME280;39954;48.844;9.726;2022-12-07T05:11:55;95990.97;;;-0.59;100.00
54038;BME280;39954;48.844;9.726;2022-12-07T05:13:00;95991.84;;;-0.58;100.00
54038;BME280;39954;48.844;9.726;2022-12-07T05:14:04;95992.66;;;-0.56;100.00
54038;BME280;39954;48.844;9.726;2022-12-07T05:15:09;95992.63;;;-0.55;100.00
54038;BME280;39954;48.844;9.726;2022-12-07T05:16:15;95989.22;;;-0.54;100.00
54038;BME280;39954;48.844;9.726;2022-12-07T05:17:17;95982.44;;;-0.55;100.00
54038;BME280;39954;48.844;9.726;2022-12-07T05:18:22;95978.16;;;-0.54;100.00
54038;BME280;39954;48.844;9.726;2022-12-07T05:19:25;95978.94;;;-0.51;100.00
54038;BME280;39954;48.844;9.726;2022-12-07T05:20:30;95987.47;;;-0.52;100.00
54038;BME280;39954;48.844;9.726;2022-12-07T05:21:39;95996.75;;;-0.44;100.00
54038;BME280;39954;48.844;9.726;2022-12-07T05:22:45;96007.91;;;-0.52;100.00
54038;BME280;39954;48.844;9.726;2022-12-07T05:23:47;96015.56;;;-0.50;100.00
54038;BME280;39954;48.844;9.726;2022-12-07T05:24:52;96019.78;;;-0.51;100.00
54038;BME280;39954;48.844;9.726;2022-12-07T05:25:54;96017.22;;;-0.48;100.00
54038;BME280;39954;48.844;9.726;2022-12-07T05:27:00;96007.91;;;-0.52;100.00
54038;BME280;39954;48.844;9.726;2022-12-07T05:28:03;96005.34;;;-0.50;100.00
54038;BME280;39954;48.844;9.726;2022-12-07T05:29:11;96008.78;;;-0.53;100.00
54038;BME280;39954;48.844;9.726;2022-12-07T05:30:14;96004.41;;;-0.46;100.00
54038;BME280;39954;48.844;9.726;2022-12-07T05:31:20;95998.47;;;-0.48;100.00
54038;BME280;39954;48.844;9.726;2022-12-07T05:32:23;95999.38;;;-0.51;100.00
54038;BME280;39954;48.844;9.726;2022-12-07T05:33:28;96001.03;;;-0.48;100.00
54038;BME280;39954;48.844;9.726;2022-12-07T05:34:31;96003.63;;;-0.51;100.00
54038;BME280;39954;48.844;9.726;2022-12-07T05:35:36;96011.38;;;-0.56;100.00
54038;BME280;39954;48.844;9.726;2022-12-07T05:36:42;96016.44;;;-0.54;100.00
54038;BME280;39954;48.844;9.726;2022-12-07T05:37:47;96013.06;;;-0.56;100.00
54038;BME280;39954;48.844;9.726;2022-12-07T05:38:49;96012.22;;;-0.55;100.00
54038;BME280;39954;48.844;9.726;2022-12-07T05:39:54;96002.00;;;-0.55;100.00
54038;BME280;39954;48.844;9.726;2022-12-07T05:41:00;95994.41;;;-0.58;100.00
54038;BME280;39954;48.844;9.726;2022-12-07T05:42:03;96000.34;;;-0.59;100.00
54038;BME280;39954;48.844;9.726;2022-12-07T05:43:19;95999.41;;;-0.54;100.00
54038;BME280;39954;48.844;9.726;2022-12-07T05:44:21;96004.53;;;-0.54;100.00
54038;BME280;39954;48.844;9.726;2022-12-07T05:45:26;96014.78;;;-0.55;100.00
54038;BME280;39954;48.844;9.726;2022-12-07T05:46:32;96008.00;;;-0.59;100.00
54038;BME280;39954;48.844;9.726;2022-12-07T05:47:35;96019.03;;;-0.57;100.00
54038;BME280;39954;48.844;9.726;2022-12-07T05:48:40;96019.88;;;-0.57;100.00
54038;BME280;39954;48.844;9.726;2022-12-07T05:49:43;96017.31;;;-0.55;100.00
54038;BME280;39954;48.844;9.726;2022-12-07T05:50:48;96012.13;;;-0.49;100.00
54038;BME280;39954;48.844;9.726;2022-12-07T05:51:53;96008.78;;;-0.54;100.00
54038;BME280;39954;48.844;9.726;2022-12-07T05:52:58;96015.66;;;-0.59;100.00
54038;BME280;39954;48.844;9.726;2022-12-07T05:54:00;96012.31;;;-0.61;100.00
54038;BME280;39954;48.844;9.726;2022-12-07T05:55:07;96013.13;;;-0.59;100.00
54038;BME280;39954;48.844;9.726;2022-12-07T05:56:12;96014.72;;;-0.54;100.00
54038;BME280;39954;48.844;9.726;2022-12-07T05:57:14;96021.47;;;-0.48;100.00
54038;BME280;39954;48.844;9.726;2022-12-07T05:58:19;96010.50;;;-0.56;100.00
54038;BME280;39954;48.844;9.726;2022-12-07T05:59:36;96025.81;;;-0.56;100.00
54038;BME280;39954;48.844;9.726;2022-12-07T06:00:39;96018.06;;;-0.47;100.00
54038;BME280;39954;48.844;9.726;2022-12-07T06:01:41;96016.41;;;-0.51;100.00
54038;BME280;39954;48.844;9.726;2022-12-07T06:02:46;96019.84;;;-0.54;100.00
54038;BME280;39954;48.844;9.726;2022-12-07T06:03:52;96018.03;;;-0.46;100.00
54038;BME280;39954;48.844;9.726;2022-12-07T06:04:54;96019.72;;;-0.44;100.00
54038;BME280;39954;48.844;9.726;2022-12-07T06:05:59;96018.06;;;-0.47;100.00
54038;BME280;39954;48.844;9.726;2022-12-07T06:07:05;96019.84;;;-0.54;100.00
54038;BME280;39954;48.844;9.726;2022-12-07T06:08:10;96019.78;;;-0.51;100.00
54038;BME280;39954;48.844;9.726;2022-12-07T06:09:14;96017.22;;;-0.49;100.00